sensor_id;sensor_type;location;lat;lon;timestamp;pressure;altitude;pressure_sealevel;temperature
8533;BMP280;4304;53.876;10.662;2022-11-21T00:00:54;105289.72;;;-139.81
8533;BMP280;4304;53.876;10.662;2022-11-21T00:03:19;105283.66;;;-139.81
8533;BMP280;4304;53.876;10.662;2022-11-21T00:05:48;105259.41;;;-139.81
8533;BMP280;4304;53.876;10.662;2022-11-21T00:08:16;105233.13;;;-139.81
8533;BMP280;4304;53.876;10.662;2022-11-21T00:10:42;105184.63;;;-139.81
8533;BMP280;4304;53.876;10.662;2022-11-21T00:13:12;105196.75;;;-139.81
8533;BMP280;4304;53.876;10.662;2022-11-21T00:15:37;105126.00;;;-139.81
8533;BMP280;4304;53.876;10.662;2022-11-21T00:18:03;105156.31;;;-139.81
8533;BMP280;4304;53.876;10.662;2022-11-21T00:20:29;105148.25;;;-139.81
8533;BMP280;4304;53.876;10.662;2022-11-21T00:22:54;105154.31;;;-139.81
8533;BMP280;4304;53.876;10.662;2022-11-21T00:25:19;105166.44;;;-139.81
8533;BMP280;4304;53.876;10.662;2022-11-21T00:27:45;105186.66;;;-139.81
8533;BMP280;4304;53.876;10.662;2022-11-21T00:30:10;105140.16;;;-139.81
8533;BMP280;4304;53.876;10.662;2022-11-21T00:32:36;105156.31;;;-139.81
8533;BMP280;4304;53.876;10.662;2022-11-21T00:35:01;105119.94;;;-139.81
8533;BMP280;4304;53.876;10.662;2022-11-21T00:37:26;105111.88;;;-139.81
8533;BMP280;4304;53.876;10.662;2022-11-21T00:39:51;105109.84;;;-139.81
8533;BMP280;4304;53.876;10.662;2022-11-21T00:42:17;105099.72;;;-139.81
8533;BMP280;4304;53.876;10.662;2022-11-21T00:44:42;105061.34;;;-139.81
8533;BMP280;4304;53.876;10.662;2022-11-21T00:47:18;105117.94;;;-139.81
8533;BMP280;4304;53.876;10.662;2022-11-21T00:49:43;105055.28;;;-139.81
8533;BMP280;4304;53.876;10.662;2022-11-21T00:52:09;105063.34;;;-139.81
8533;BMP280;4304;53.876;10.662;2022-11-21T00:54:34;105091.66;;;-139.81
8533;BMP280;4304;53.876;10.662;2022-11-21T00:56:59;105063.34;;;-139.81
8533;BMP280;4304;53.876;10.662;2022-11-21T00:59:24;105035.06;;;-139.81
8533;BMP280;4304;53.876;10.662;2022-11-21T01:01:50;105035.06;;;-139.81
8533;BMP280;4304;53.876;10.662;2022-11-21T01:04:15;105039.09;;;-139.81
8533;BMP280;4304;53.876;10.662;2022-11-21T01:06:40;105022.94;;;-139.81
8533;BMP280;4304;53.876;10.662;2022-11-21T01:09:06;105063.34;;;-139.81
8533;BMP280;4304;53.876;10.662;2022-11-21T01:11:31;105049.22;;;-139.81
8533;BMP280;4304;53.876;10.662;2022-11-21T01:13:57;105049.22;;;-139.81
8533;BMP280;4304;53.876;10.662;2022-11-21T01:16:24;105047.19;;;-139.81
8533;BMP280;4304;53.876;10.662;2022-11-21T01:18:50;105022.94;;;-139.81
8533;BMP280;4304;53.876;10.662;2022-11-21T01:23:41;104998.69;;;-139.81
8533;BMP280;4304;53.876;10.662;2022-11-21T01:26:11;105047.19;;;-139.81
8533;BMP280;4304;53.876;10.662;2022-11-21T01:28:37;104994.66;;;-139.81
8533;BMP280;4304;53.876;10.662;2022-11-21T01:31:10;105075.47;;;-139.81
8533;BMP280;4304;53.876;10.662;2022-11-21T01:33:36;105049.22;;;-139.81
8533;BMP280;4304;53.876;10.662;2022-11-21T01:36:24;105020.91;;;-139.81
8533;BMP280;4304;53.876;10.662;2022-11-21T01:38:52;104954.22;;;-139.81
8533;BMP280;4304;53.876;10.662;2022-11-21T01:41:26;105010.81;;;-139.81
8533;BMP280;4304;53.876;10.662;2022-11-21T01:43:52;104958.28;;;-139.81
8533;BMP280;4304;53.876;10.662;2022-11-21T01:46:21;105002.72;;;-139.81
8533;BMP280;4304;53.876;10.662;2022-11-21T01:49:07;105041.13;;;-139.81
8533;BMP280;4304;53.876;10.662;2022-11-21T01:51:47;105035.06;;;-139.81
8533;BMP280;4304;53.876;10.662;2022-11-21T01:54:19;105041.13;;;-139.81
8533;BMP280;4304;53.876;10.662;2022-11-21T02:02:10;105022.94;;;-139.81
8533;BMP280;4304;53.876;10.662;2022-11-21T02:04:37;105061.34;;;-139.81
8533;BMP280;4304;53.876;10.662;2022-11-21T02:07:05;105055.28;;;-139.81
8533;BMP280;4304;53.876;10.662;2022-11-21T02:09:32;105063.34;;;-139.81
8533;BMP280;4304;53.876;10.662;2022-11-21T02:12:13;105111.88;;;-139.81
8533;BMP280;4304;53.876;10.662;2022-11-21T02:14:42;105109.84;;;-139.81
8533;BMP280;4304;53.876;10.662;2022-11-21T02:17:09;105097.72;;;-139.81
8533;BMP280;4304;53.876;10.662;2022-11-21T02:19:51;105128.03;;;-139.81
8533;BMP280;4304;53.876;10.662;2022-11-21T02:22:51;105160.38;;;-139.81
8533;BMP280;4304;53.876;10.662;2022-11-21T02:27:54;105158.34;;;-139.81
8533;BMP280;4304;53.876;10.662;2022-11-21T02:30:21;105136.13;;;-139.81
8533;BMP280;4304;53.876;10.662;2022-11-21T02:32:47;105115.91;;;-139.81
8533;BMP280;4304;53.876;10.662;2022-11-21T02:35:14;105178.56;;;-139.81
8533;BMP280;4304;53.876;10.662;2022-11-21T02:41:07;105269.50;;;-139.81
8533;BMP280;4304;53.876;10.662;2022-11-21T02:43:42;105253.34;;;-139.81
8533;BMP280;4304;53.876;10.662;2022-11-21T02:46:12;105227.06;;;-139.81
8533;BMP280;4304;53.876;10.662;2022-11-21T02:48:38;105249.28;;;-139.81
8533;BMP280;4304;53.876;10.662;2022-11-21T02:51:03;105267.50;;;-139.81
8533;BMP280;4304;53.876;10.662;2022-11-21T02:53:29;105253.34;;;-139.81
8533;BMP280;4304;53.876;10.662;2022-11-21T02:55:54;105239.19;;;-139.81
8533;BMP280;4304;53.876;10.662;2022-11-21T02:58:19;105297.81;;;-139.81
8533;BMP280;4304;53.876;10.662;2022-11-21T03:00:44;105313.97;;;-139.81
8533;BMP280;4304;53.876;10.662;2022-11-21T03:03:10;105269.50;;;-139.81
8533;BMP280;4304;53.876;10.662;2022-11-21T03:05:37;105283.66;;;-139.81
8533;BMP280;4304;53.876;10.662;2022-11-21T03:08:03;105269.50;;;-139.81
8533;BMP280;4304;53.876;10.662;2022-11-21T03:10:29;105318.00;;;-139.81
8533;BMP280;4304;53.876;10.662;2022-11-21T03:12:54;105289.72;;;-139.81
8533;BMP280;4304;53.876;10.662;2022-11-21T03:15:19;105289.72;;;-139.81
8533;BMP280;4304;53.876;10.662;2022-11-21T03:17:47;105289.72;;;-139.81
8533;BMP280;4304;53.876;10.662;2022-11-21T03:20:12;105285.69;;;-139.81
8533;BMP280;4304;53.876;10.662;2022-11-21T03:22:37;105241.22;;;-139.81
8533;BMP280;4304;53.876;10.662;2022-11-21T03:25:03;105267.50;;;-139.81
8533;BMP280;4304;53.876;10.662;2022-11-21T03:27:29;105249.28;;;-139.81
8533;BMP280;4304;53.876;10.662;2022-11-21T03:29:55;105245.25;;;-139.81
8533;BMP280;4304;53.876;10.662;2022-11-21T03:32:20;105227.06;;;-139.81
8533;BMP280;4304;53.876;10.662;2022-11-21T03:34:45;105233.13;;;-139.81
8533;BMP280;4304;53.876;10.662;2022-11-21T03:37:10;105243.22;;;-139.81
8533;BMP280;4304;53.876;10.662;2022-11-21T03:39:35;105218.97;;;-139.81
8533;BMP280;4304;53.876;10.662;2022-11-21T03:42:01;105249.28;;;-139.81
8533;BMP280;4304;53.876;10.662;2022-11-21T03:44:26;105259.41;;;-139.81
8533;BMP280;4304;53.876;10.662;2022-11-21T03:46:51;105297.81;;;-139.81
8533;BMP280;4304;53.876;10.662;2022-11-21T03:49:16;105279.63;;;-139.81
8533;BMP280;4304;53.876;10.662;2022-11-21T03:51:42;105305.88;;;-139.81
8533;BMP280;4304;53.876;10.662;2022-11-21T03:54:13;105342.28;;;-139.81
8533;BMP280;4304;53.876;10.662;2022-11-21T03:56:39;105309.94;;;-139.81
8533;BMP280;4304;53.876;10.662;2022-11-21T03:59:04;105364.50;;;-139.81
8533;BMP280;4304;53.876;10.662;2022-11-21T04:01:29;105352.38;;;-139.81
8533;BMP280;4304;53.876;10.662;2022-11-21T04:03:55;105366.53;;;-139.81
8533;BMP280;4304;53.876;10.662;2022-11-21T04:06:21;105376.63;;;-139.81
8533;BMP280;4304;53.876;10.662;2022-11-21T04:08:47;105358.44;;;-139.81
8533;BMP280;4304;53.876;10.662;2022-11-21T04:11:15;105390.78;;;-139.81
8533;BMP280;4304;53.876;10.662;2022-11-21T04:13:41;105411.00;;;-139.81
8533;BMP280;4304;53.876;10.662;2022-11-21T04:16:07;105455.47;;;-139.81
8533;BMP280;4304;53.876;10.662;2022-11-21T04:18:35;105473.66;;;-139.81
8533;BMP280;4304;53.876;10.662;2022-11-21T04:21:03;105469.59;;;-139.81
8533;BMP280;4304;53.876;10.662;2022-11-21T04:23:29;105499.94;;;-139.81
8533;BMP280;4304;53.876;10.662;2022-11-21T04:26:00;105548.44;;;-139.81
8533;BMP280;4304;53.876;10.662;2022-11-21T04:28:26;105491.84;;;-139.81
8533;BMP280;4304;53.876;10.662;2022-11-21T04:30:51;105520.13;;;-139.81
8533;BMP280;4304;53.876;10.662;2022-11-21T04:33:29;105548.44;;;-139.81
8533;BMP280;4304;53.876;10.662;2022-11-21T04:35:54;105524.19;;;-139.81
8533;BMP280;4304;53.876;10.662;2022-11-21T04:38:19;105534.28;;;-139.81
8533;BMP280;4304;53.876;10.662;2022-11-21T04:40:46;105588.88;;;-139.81
8533;BMP280;4304;53.876;10.662;2022-11-21T04:43:12;105520.13;;;-139.81
8533;BMP280;4304;53.876;10.662;2022-11-21T04:45:37;105522.16;;;-139.81
8533;BMP280;4304;53.876;10.662;2022-11-21T04:48:02;105560.56;;;-139.81
8533;BMP280;4304;53.876;10.662;2022-11-21T04:50:27;105548.44;;;-139.81
8533;BMP280;4304;53.876;10.662;2022-11-21T04:52:54;105582.81;;;-139.81
8533;BMP280;4304;53.876;10.662;2022-11-21T04:55:21;105540.34;;;-139.81
8533;BMP280;4304;53.876;10.662;2022-11-21T04:57:47;105528.22;;;-139.81
8533;BMP280;4304;53.876;10.662;2022-11-21T05:00:14;105548.44;;;-139.81
8533;BMP280;4304;53.876;10.662;2022-11-21T05:02:39;105522.16;;;-139.81
8533;BMP280;4304;53.876;10.662;2022-11-21T05:05:19;105556.53;;;-139.81
8533;BMP280;4304;53.876;10.662;2022-11-21T05:07:44;105512.06;;;-139.81
8533;BMP280;4304;53.876;10.662;2022-11-21T05:10:10;105491.84;;;-139.81
8533;BMP280;4304;53.876;10.662;2022-11-21T05:12:35;105463.53;;;-139.81
8533;BMP280;4304;53.876;10.662;2022-11-21T05:15:00;105487.78;;;-139.81
8533;BMP280;4304;53.876;10.662;2022-11-21T05:17:27;105520.13;;;-139.81
8533;BMP280;4304;53.876;10.662;2022-11-21T05:20:00;105528.22;;;-139.81
8533;BMP280;4304;53.876;10.662;2022-11-21T05:22:25;105433.22;;;-139.81
8533;BMP280;4304;53.876;10.662;2022-11-21T05:24:51;105404.94;;;-139.81
8533;BMP280;4304;53.876;10.662;2022-11-21T05:27:16;105469.59;;;-139.81
8533;BMP280;4304;53.876;10.662;2022-11-21T05:29:41;105550.47;;;-139.81
8533;BMP280;4304;53.876;10.662;2022-11-21T05:32:07;105508.00;;;-139.81
8533;BMP280;4304;53.876;10.662;2022-11-21T05:34:32;105518.13;;;-139.81
8533;BMP280;4304;53.876;10.662;2022-11-21T05:36:57;105508.00;;;-139.81
8533;BMP280;4304;53.876;10.662;2022-11-21T05:39:23;105516.09;;;-139.81
8533;BMP280;4304;53.876;10.662;2022-11-21T05:41:48;105552.47;;;-139.81
8533;BMP280;4304;53.876;10.662;2022-11-21T05:44:13;105574.72;;;-139.81
8533;BMP280;4304;53.876;10.662;2022-11-21T05:46:39;105568.66;;;-139.81
8533;BMP280;4304;53.876;10.662;2022-11-21T05:49:04;105629.28;;;-139.81
8533;BMP280;4304;53.876;10.662;2022-11-21T05:51:29;105544.41;;;-139.81
8533;BMP280;4304;53.876;10.662;2022-11-21T05:53:55;105540.34;;;-139.81
8533;BMP280;4304;53.876;10.662;2022-11-21T05:56:20;105516.09;;;-139.81
8533;BMP280;4304;53.876;10.662;2022-11-21T05:58:46;105508.00;;;-139.81
8533;BMP280;4304;53.876;10.662;2022-11-21T06:01:12;105580.78;;;-139.81
8533;BMP280;4304;53.876;10.662;2022-11-21T06:03:40;105572.69;;;-139.81
8533;BMP280;4304;53.876;10.662;2022-11-21T06:11:05;105570.66;;;-139.81
8533;BMP280;4304;53.876;10.662;2022-11-21T06:13:31;105586.84;;;-139.81
8533;BMP280;4304;53.876;10.662;2022-11-21T06:16:04;105667.69;;;-139.81
8533;BMP280;4304;53.876;10.662;2022-11-21T06:18:32;105588.88;;;-139.81
8533;BMP280;4304;53.876;10.662;2022-11-21T06:21:12;105564.59;;;-139.81
8533;BMP280;4304;53.876;10.662;2022-11-21T06:23:38;105560.56;;;-139.81
8533;BMP280;4304;53.876;10.662;2022-11-21T06:26:05;105556.53;;;-139.81
8533;BMP280;4304;53.876;10.662;2022-11-21T06:28:34;105560.56;;;-139.81
8533;BMP280;4304;53.876;10.662;2022-11-21T06:31:14;105584.81;;;-139.81
8533;BMP280;4304;53.876;10.662;2022-11-21T06:33:40;105514.06;;;-139.81
8533;BMP280;4304;53.876;10.662;2022-11-21T06:36:11;105546.41;;;-139.81
8533;BMP280;4304;53.876;10.662;2022-11-21T06:38:37;105491.84;;;-139.81
8533;BMP280;4304;53.876;10.662;2022-11-21T06:41:28;105530.25;;;-139.81
8533;BMP280;4304;53.876;10.662;2022-11-21T06:43:53;105455.47;;;-139.81
8533;BMP280;4304;53.876;10.662;2022-11-21T06:46:19;105443.34;;;-139.81
8533;BMP280;4304;53.876;10.662;2022-11-21T06:48:44;105483.75;;;-139.81
8533;BMP280;4304;53.876;10.662;2022-11-21T06:51:15;105548.44;;;-139.81
8533;BMP280;4304;53.876;10.662;2022-11-21T06:53:51;105584.81;;;-139.81
8533;BMP280;4304;53.876;10.662;2022-11-21T06:56:16;105532.25;;;-139.81
8533;BMP280;4304;53.876;10.662;2022-11-21T06:58:41;105536.31;;;-139.81
8533;BMP280;4304;53.876;10.662;2022-11-21T07:01:08;105526.19;;;-139.81
8533;BMP280;4304;53.876;10.662;2022-11-21T07:03:34;105584.81;;;-139.81
8533;BMP280;4304;53.876;10.662;2022-11-21T07:06:00;105607.06;;;-139.81
8533;BMP280;4304;53.876;10.662;2022-11-21T07:08:27;105542.38;;;-139.81
8533;BMP280;4304;53.876;10.662;2022-11-21T07:10:52;105518.13;;;-139.81
8533;BMP280;4304;53.876;10.662;2022-11-21T07:13:17;105536.31;;;-139.81
8533;BMP280;4304;53.876;10.662;2022-11-21T07:15:44;105564.59;;;-139.81
8533;BMP280;4304;53.876;10.662;2022-11-21T07:18:10;105568.66;;;-139.81
8533;BMP280;4304;53.876;10.662;2022-11-21T07:20:36;105582.81;;;-139.81
8533;BMP280;4304;53.876;10.662;2022-11-21T07:23:01;105576.75;;;-139.81
8533;BMP280;4304;53.876;10.662;2022-11-21T07:25:27;105621.22;;;-139.81
8533;BMP280;4304;53.876;10.662;2022-11-21T07:27:52;105586.84;;;-139.81
8533;BMP280;4304;53.876;10.662;2022-11-21T07:30:17;105657.59;;;-139.81
8533;BMP280;4304;53.876;10.662;2022-11-21T07:32:42;105663.66;;;-139.81
8533;BMP280;4304;53.876;10.662;2022-11-21T07:35:08;105685.88;;;-139.81
8533;BMP280;4304;53.876;10.662;2022-11-21T07:37:40;105724.28;;;-139.81
8533;BMP280;4304;53.876;10.662;2022-11-21T07:40:05;105714.19;;;-139.81
8533;BMP280;4304;53.876;10.662;2022-11-21T07:42:34;105784.94;;;-139.81
8533;BMP280;4304;53.876;10.662;2022-11-21T07:45:02;105760.69;;;-139.81
8533;BMP280;4304;53.876;10.662;2022-11-21T07:47:28;105698.03;;;-139.81
8533;BMP280;4304;53.876;10.662;2022-11-21T07:49:53;105712.16;;;-139.81
8533;BMP280;4304;53.876;10.662;2022-11-21T07:52:18;105679.81;;;-139.81
8533;BMP280;4304;53.876;10.662;2022-11-21T07:54:44;105799.09;;;-139.81
8533;BMP280;4304;53.876;10.662;2022-11-21T07:57:09;105764.72;;;-139.81
8533;BMP280;4304;53.876;10.662;2022-11-21T07:59:34;105803.13;;;-139.81
8533;BMP280;4304;53.876;10.662;2022-11-21T08:01:59;105801.13;;;-139.81
8533;BMP280;4304;53.876;10.662;2022-11-21T08:04:25;105758.66;;;-139.81
8533;BMP280;4304;53.876;10.662;2022-11-21T08:06:50;105738.44;;;-139.81
8533;BMP280;4304;53.876;10.662;2022-11-21T08:09:15;105758.66;;;-139.81
8533;BMP280;4304;53.876;10.662;2022-11-21T08:11:41;105793.03;;;-139.81
8533;BMP280;4304;53.876;10.662;2022-11-21T08:14:07;106021.47;;;-139.81
8533;BMP280;4304;53.876;10.662;2022-11-21T08:16:32;106061.91;;;-139.81
8533;BMP280;4304;53.876;10.662;2022-11-21T08:19:00;106318.66;;;-139.81
8533;BMP280;4304;53.876;10.662;2022-11-21T08:21:26;106401.56;;;-139.81
8533;BMP280;4304;53.876;10.662;2022-11-21T08:23:52;106520.84;;;-139.81
8533;BMP280;4304;53.876;10.662;2022-11-21T08:26:18;106642.19;;;-139.81
8533;BMP280;4304;53.876;10.662;2022-11-21T08:28:43;106911.13;;;-139.81
8533;BMP280;4304;53.876;10.662;2022-11-21T08:31:19;106996.06;;;-139.81
8533;BMP280;4304;53.876;10.662;2022-11-21T08:33:45;107087.06;;;-139.81
8533;BMP280;4304;53.876;10.662;2022-11-21T08:36:10;107325.72;;;-139.81
8533;BMP280;4304;53.876;10.662;2022-11-21T08:38:38;107265.03;;;-139.81
8533;BMP280;4304;53.876;10.662;2022-11-21T08:41:03;107309.53;;;-139.81
8533;BMP280;4304;53.876;10.662;2022-11-21T08:43:29;107530.00;;;-139.81
8533;BMP280;4304;53.876;10.662;2022-11-21T08:46:00;107637.22;;;-139.81
8533;BMP280;4304;53.876;10.662;2022-11-21T08:48:25;107505.72;;;-139.81
8533;BMP280;4304;53.876;10.662;2022-11-21T08:50:50;107404.59;;;-139.81
8533;BMP280;4304;53.876;10.662;2022-11-21T08:53:15;107445.06;;;-139.81
8533;BMP280;4304;53.876;10.662;2022-11-21T08:55:49;107447.06;;;-139.81
8533;BMP280;4304;53.876;10.662;2022-11-21T08:58:14;107263.03;;;-139.81
8533;BMP280;4304;53.876;10.662;2022-11-21T09:00:40;107105.28;;;-139.81
8533;BMP280;4304;53.876;10.662;2022-11-21T09:03:05;107064.81;;;-139.81
8533;BMP280;4304;53.876;10.662;2022-11-21T09:05:31;107103.25;;;-139.81
8533;BMP280;4304;53.876;10.662;2022-11-21T09:07:57;107004.16;;;-139.81
8533;BMP280;4304;53.876;10.662;2022-11-21T09:10:23;106779.69;;;-139.81
8533;BMP280;4304;53.876;10.662;2022-11-21T09:12:48;106733.16;;;-139.81
8533;BMP280;4304;53.876;10.662;2022-11-21T09:15:14;106741.25;;;-139.81
8533;BMP280;4304;53.876;10.662;2022-11-21T09:17:39;106737.22;;;-139.81
8533;BMP280;4304;53.876;10.662;2022-11-21T09:20:04;106694.75;;;-139.81
8533;BMP280;4304;53.876;10.662;2022-11-21T09:22:39;106832.25;;;-139.81
8533;BMP280;4304;53.876;10.662;2022-11-21T09:25:04;106753.41;;;-139.81
8533;BMP280;4304;53.876;10.662;2022-11-21T09:27:30;106670.50;;;-139.81
8533;BMP280;4304;53.876;10.662;2022-11-21T09:29:55;106698.78;;;-139.81
8533;BMP280;4304;53.876;10.662;2022-11-21T09:32:21;106648.25;;;-139.81
8533;BMP280;4304;53.876;10.662;2022-11-21T09:34:46;106613.88;;;-139.81
8533;BMP280;4304;53.876;10.662;2022-11-21T09:37:11;106692.72;;;-139.81
8533;BMP280;4304;53.876;10.662;2022-11-21T09:39:37;106678.56;;;-139.81
8533;BMP280;4304;53.876;10.662;2022-11-21T09:42:17;106745.31;;;-139.81
8533;BMP280;4304;53.876;10.662;2022-11-21T09:45:24;106789.78;;;-139.81
8533;BMP280;4304;53.876;10.662;2022-11-21T09:47:50;106668.47;;;-139.81
8533;BMP280;4304;53.876;10.662;2022-11-21T09:50:27;106745.31;;;-139.81
8533;BMP280;4304;53.876;10.662;2022-11-21T09:52:56;106771.59;;;-139.81
8533;BMP280;4304;53.876;10.662;2022-11-21T09:57:53;106801.94;;;-139.81
8533;BMP280;4304;53.876;10.662;2022-11-21T10:00:21;106852.47;;;-139.81
8533;BMP280;4304;53.876;10.662;2022-11-21T10:02:53;106943.47;;;-139.81
8533;BMP280;4304;53.876;10.662;2022-11-21T10:08:27;106890.91;;;-139.81
8533;BMP280;4304;53.876;10.662;2022-11-21T10:11:04;106931.34;;;-139.81
8533;BMP280;4304;53.876;10.662;2022-11-21T10:22:01;106935.41;;;-139.81
8533;BMP280;4304;53.876;10.662;2022-11-21T10:27:30;107052.69;;;-139.81
8533;BMP280;4304;53.876;10.662;2022-11-21T10:30:13;107202.34;;;-139.81
8533;BMP280;4304;53.876;10.662;2022-11-21T10:32:45;107056.72;;;-139.81
8533;BMP280;4304;53.876;10.662;2022-11-21T10:35:39;107232.69;;;-139.81
8533;BMP280;4304;53.876;10.662;2022-11-21T10:38:19;107155.84;;;-139.81
8533;BMP280;4304;53.876;10.662;2022-11-21T10:45:48;107149.75;;;-139.81
8533;BMP280;4304;53.876;10.662;2022-11-21T10:48:14;107194.25;;;-139.81
8533;BMP280;4304;53.876;10.662;2022-11-21T10:50:52;107200.31;;;-139.81
8533;BMP280;4304;53.876;10.662;2022-11-21T10:53:30;107283.25;;;-139.81
8533;BMP280;4304;53.876;10.662;2022-11-21T10:56:02;107254.94;;;-139.81
8533;BMP280;4304;53.876;10.662;2022-11-21T10:58:54;107299.44;;;-139.81
8533;BMP280;4304;53.876;10.662;2022-11-21T11:01:30;107194.25;;;-139.81
8533;BMP280;4304;53.876;10.662;2022-11-21T11:06:30;107190.22;;;-139.81
8533;BMP280;4304;53.876;10.662;2022-11-21T11:09:00;107230.66;;;-139.81
8533;BMP280;4304;53.876;10.662;2022-11-21T11:11:26;107236.72;;;-139.81
8533;BMP280;4304;53.876;10.662;2022-11-21T11:14:03;107311.56;;;-139.81
8533;BMP280;4304;53.876;10.662;2022-11-21T11:16:30;107226.63;;;-139.81
8533;BMP280;4304;53.876;10.662;2022-11-21T11:19:04;107076.97;;;-139.81
8533;BMP280;4304;53.876;10.662;2022-11-21T11:21:49;107062.81;;;-139.81
8533;BMP280;4304;53.876;10.662;2022-11-21T11:26:56;106947.53;;;-139.81
8533;BMP280;4304;53.876;10.662;2022-11-21T11:29:27;106987.97;;;-139.81
8533;BMP280;4304;53.876;10.662;2022-11-21T11:32:02;107097.19;;;-139.81
8533;BMP280;4304;53.876;10.662;2022-11-21T11:37:38;107157.84;;;-139.81
8533;BMP280;4304;53.876;10.662;2022-11-21T11:48:21;107139.66;;;-139.81
8533;BMP280;4304;53.876;10.662;2022-11-21T11:50:56;107208.41;;;-139.81
8533;BMP280;4304;53.876;10.662;2022-11-21T11:53:28;107216.50;;;-139.81
8533;BMP280;4304;53.876;10.662;2022-11-21T11:56:02;107281.22;;;-139.81
8533;BMP280;4304;53.876;10.662;2022-11-21T11:58:51;107242.78;;;-139.81
8533;BMP280;4304;53.876;10.662;2022-11-21T12:01:40;107190.22;;;-139.81
8533;BMP280;4304;53.876;10.662;2022-11-21T12:04:12;107178.06;;;-139.81
8533;BMP280;4304;53.876;10.662;2022-11-21T12:06:53;107327.75;;;-139.81
8533;BMP280;4304;53.876;10.662;2022-11-21T12:12:27;107382.34;;;-139.81
8533;BMP280;4304;53.876;10.662;2022-11-21T12:15:22;107333.81;;;-139.81
8533;BMP280;4304;53.876;10.662;2022-11-21T12:21:15;107505.72;;;-139.81
8533;BMP280;4304;53.876;10.662;2022-11-21T12:23:52;107497.66;;;-139.81
8533;BMP280;4304;53.876;10.662;2022-11-21T12:32:16;107515.84;;;-139.81
8533;BMP280;4304;53.876;10.662;2022-11-21T12:46:24;107343.91;;;-139.81
8533;BMP280;4304;53.876;10.662;2022-11-21T12:48:59;107392.47;;;-139.81
8533;BMP280;4304;53.876;10.662;2022-11-21T12:51:43;107347.97;;;-139.81
8533;BMP280;4304;53.876;10.662;2022-11-21T12:54:30;107453.16;;;-139.81
8533;BMP280;4304;53.876;10.662;2022-11-21T12:59:30;107505.72;;;-139.81
8533;BMP280;4304;53.876;10.662;2022-11-21T13:02:10;107669.56;;;-139.81
8533;BMP280;4304;53.876;10.662;2022-11-21T13:04:41;107570.47;;;-139.81
8533;BMP280;4304;53.876;10.662;2022-11-21T13:07:08;107473.38;;;-139.81
8533;BMP280;4304;53.876;10.662;2022-11-21T13:09:39;107538.09;;;-139.81
8533;BMP280;4304;53.876;10.662;2022-11-21T13:12:17;107546.19;;;-139.81
8533;BMP280;4304;53.876;10.662;2022-11-21T13:14:52;107546.19;;;-139.81
8533;BMP280;4304;53.876;10.662;2022-11-21T13:25:12;107513.81;;;-139.81
8533;BMP280;4304;53.876;10.662;2022-11-21T13:36:50;107445.06;;;-139.81
8533;BMP280;4304;53.876;10.662;2022-11-21T13:52:22;107550.22;;;-139.81
8533;BMP280;4304;53.876;10.662;2022-11-21T13:57:52;107623.06;;;-139.81
8533;BMP280;4304;53.876;10.662;2022-11-21T14:08:40;107436.97;;;-139.81
8533;BMP280;4304;53.876;10.662;2022-11-21T14:11:20;107392.47;;;-139.81
8533;BMP280;4304;53.876;10.662;2022-11-21T14:13:47;107368.19;;;-139.81
8533;BMP280;4304;53.876;10.662;2022-11-21T14:16:27;107372.25;;;-139.81
8533;BMP280;4304;53.876;10.662;2022-11-21T14:18:55;107224.59;;;-139.81
8533;BMP280;4304;53.876;10.662;2022-11-21T14:21:26;107115.38;;;-139.81
8533;BMP280;4304;53.876;10.662;2022-11-21T14:24:03;107400.56;;;-139.81
8533;BMP280;4304;53.876;10.662;2022-11-21T14:26:42;107216.50;;;-139.81
8533;BMP280;4304;53.876;10.662;2022-11-21T14:29:38;107287.28;;;-139.81
8533;BMP280;4304;53.876;10.662;2022-11-21T14:32:03;107145.72;;;-139.81
8533;BMP280;4304;53.876;10.662;2022-11-21T14:34:30;107198.31;;;-139.81
8533;BMP280;4304;53.876;10.662;2022-11-21T14:37:03;107224.59;;;-139.81
8533;BMP280;4304;53.876;10.662;2022-11-21T14:39:32;107210.44;;;-139.81
8533;BMP280;4304;53.876;10.662;2022-11-21T14:42:02;107161.91;;;-139.81
8533;BMP280;4304;53.876;10.662;2022-11-21T14:47:19;107123.47;;;-139.81
8533;BMP280;4304;53.876;10.662;2022-11-21T14:49:52;107107.28;;;-139.81
8533;BMP280;4304;53.876;10.662;2022-11-21T14:52:35;107014.25;;;-139.81
8533;BMP280;4304;53.876;10.662;2022-11-21T14:55:03;107014.25;;;-139.81
8533;BMP280;4304;53.876;10.662;2022-11-21T14:57:35;106987.97;;;-139.81
8533;BMP280;4304;53.876;10.662;2022-11-21T15:00:05;106929.31;;;-139.81
8533;BMP280;4304;53.876;10.662;2022-11-21T15:02:31;106899.00;;;-139.81
8533;BMP280;4304;53.876;10.662;2022-11-21T15:05:06;106907.09;;;-139.81
8533;BMP280;4304;53.876;10.662;2022-11-21T15:07:38;106866.63;;;-139.81
8533;BMP280;4304;53.876;10.662;2022-11-21T15:10:04;106842.38;;;-139.81
8533;BMP280;4304;53.876;10.662;2022-11-21T15:18:14;106801.94;;;-139.81
8533;BMP280;4304;53.876;10.662;2022-11-21T15:20:46;106832.25;;;-139.81
8533;BMP280;4304;53.876;10.662;2022-11-21T15:23:35;106692.72;;;-139.81
8533;BMP280;4304;53.876;10.662;2022-11-21T15:26:01;106603.75;;;-139.81
8533;BMP280;4304;53.876;10.662;2022-11-21T15:28:27;106660.38;;;-139.81
8533;BMP280;4304;53.876;10.662;2022-11-21T15:31:18;106636.09;;;-139.81
8533;BMP280;4304;53.876;10.662;2022-11-21T15:34:09;106607.81;;;-139.81
8533;BMP280;4304;53.876;10.662;2022-11-21T15:36:37;106486.47;;;-139.81
8533;BMP280;4304;53.876;10.662;2022-11-21T15:44:13;106490.53;;;-139.81
8533;BMP280;4304;53.876;10.662;2022-11-21T15:46:39;106427.84;;;-139.81
8533;BMP280;4304;53.876;10.662;2022-11-21T15:49:05;106423.81;;;-139.81
8533;BMP280;4304;53.876;10.662;2022-11-21T15:51:37;106450.09;;;-139.81
8533;BMP280;4304;53.876;10.662;2022-11-21T15:54:06;106312.59;;;-139.81
8533;BMP280;4304;53.876;10.662;2022-11-21T15:56:32;106351.00;;;-139.81
8533;BMP280;4304;53.876;10.662;2022-11-21T15:58:57;106342.91;;;-139.81
8533;BMP280;4304;53.876;10.662;2022-11-21T16:01:28;106344.94;;;-139.81
8533;BMP280;4304;53.876;10.662;2022-11-21T16:03:58;106300.47;;;-139.81
8533;BMP280;4304;53.876;10.662;2022-11-21T16:06:23;106229.69;;;-139.81
8533;BMP280;4304;53.876;10.662;2022-11-21T16:08:49;106231.72;;;-139.81
8533;BMP280;4304;53.876;10.662;2022-11-21T16:11:22;106332.81;;;-139.81
8533;BMP280;4304;53.876;10.662;2022-11-21T16:13:51;106205.44;;;-139.81